Time;durP1;ratioP1;P1;durP2;ratioP2;P2;SDS_P1;SDS_P2;PMS_P1;PMS_P2;Temp;Humidity;BMP_temperature;BMP_pressure;BME280_temperature;BME280_humidity;BME280_pressure;Samples;Min_cycle;Max_cycle;Signal;HPM_P1;HPM_P2
2023/01/26 00:01:00;;;;;;;32.50;13.52;;;;;;;1.17;100.00;100496.31;12241876;19;20006;-81
2023/01/26 00:05:01;;;;;;;30.37;13.43;;;;;;;1.23;100.00;100489.38;12214539;19;20030;-82
2023/01/26 00:09:03;;;;;;;32.00;12.77;;;;;;;1.22;100.00;100487.66;12213152;19;20010;-84
2023/01/26 00:13:05;;;;;;;28.42;12.88;;;;;;;1.11;100.00;100481.56;12194117;19;20031;-85
2023/01/26 00:17:07;;;;;;;;;;;;;;;1.15;100.00;100479.34;12213559;19;20003;-83
2023/01/26 00:21:13;;;;;;;26.10;10.93;;;;;;;1.14;100.00;100464.94;12204754;19;19914;-83
2023/01/26 00:25:14;;;;;;;25.40;11.65;;;;;;;1.19;100.00;100464.44;12190411;19;20002;-80
2023/01/26 00:29:16;;;;;;;31.48;12.57;;;;;;;1.17;100.00;100463.75;12204265;19;20091;-82
2023/01/26 00:33:19;;;;;;;29.30;12.52;;;;;;;1.09;100.00;100456.47;12207787;19;20014;-84
2023/01/26 00:37:20;;;;;;;27.40;12.48;;;;;;;1.11;100.00;100454.44;12181842;19;20999;-83
2023/01/26 00:45:44;;;;;;;31.55;12.70;;;;;;;1.17;100.00;100447.47;12205515;19;20450;-82
2023/01/26 00:49:46;;;;;;;27.77;12.73;;;;;;;1.19;100.00;100441.84;12182241;19;20083;-84
2023/01/26 00:53:47;;;;;;;31.95;11.93;;;;;;;1.27;100.00;100450.81;12201621;19;20025;-81
2023/01/26 00:57:49;;;;;;;28.55;12.50;;;;;;;1.26;100.00;100446.41;12204641;19;20013;-81
2023/01/26 01:01:51;;;;;;;27.63;12.00;;;;;;;1.26;100.00;100449.13;12184590;19;20046;-82
2023/01/26 01:05:52;;;;;;;34.43;13.10;;;;;;;1.25;100.00;100452.88;12206694;19;20010;-84
2023/01/26 01:09:54;;;;;;;31.50;12.02;;;;;;;1.23;100.00;100457.63;12209965;19;20002;-82
2023/01/26 01:13:56;;;;;;;30.05;11.85;;;;;;;1.23;100.00;100454.91;12186686;19;20034;-79
2023/01/26 01:17:58;;;;;;;32.00;12.65;;;;;;;1.19;100.00;100450.00;12262153;19;20021;-79
2023/01/26 01:21:59;;;;;;;30.55;12.70;;;;;;;1.19;100.00;100448.16;12223349;19;20014;-83
2023/01/26 01:26:02;;;;;;;29.60;11.20;;;;;;;1.19;100.00;100452.69;12214501;19;20563;-83
2023/01/26 01:30:06;;;;;;;23.53;8.93;;;;;;;1.21;100.00;100442.53;12206746;19;20472;-82
2023/01/26 01:34:08;;;;;;;27.85;11.95;;;;;;;1.16;100.00;100443.06;12181671;19;20682;-82
2023/01/26 01:38:10;;;;;;;28.85;11.25;;;;;;;1.17;100.00;100452.88;12200899;19;20014;-81
2023/01/26 01:42:11;;;;;;;29.50;11.50;;;;;;;1.20;100.00;100444.41;12194434;19;20010;-80
2023/01/26 01:46:32;;;;;;;28.73;12.10;;;;;;;1.11;100.00;100440.00;12178499;19;20014;-82
2023/01/26 01:50:38;;;;;;;27.85;11.73;;;;;;;1.09;100.00;100442.03;12202383;19;20441;-82
2023/01/26 01:54:58;;;;;;;33.75;12.13;;;;;;;1.11;100.00;100448.16;12201291;19;20007;-80
2023/01/26 01:59:02;;;;;;;28.80;11.52;;;;;;;1.05;100.00;100444.25;12176672;19;20007;-82
2023/01/26 02:03:18;;;;;;;30.90;11.75;;;;;;;1.03;100.00;100443.56;12198596;19;20043;-82
2023/01/26 02:07:20;;;;;;;30.30;11.23;;;;;;;1.05;100.00;100448.84;12178341;19;20018;-81
2023/01/26 02:11:35;;;;;;;27.15;10.88;;;;;;;1.06;100.00;100439.69;12193346;19;20437;-82
2023/01/26 02:15:37;;;;;;;30.02;11.20;;;;;;;1.00;100.00;100435.78;12199024;19;20031;-82
2023/01/26 02:19:44;;;;;;;25.83;11.17;;;;;;;1.02;100.00;100433.75;12178201;19;20321;-82
2023/01/26 02:23:56;;;;;;;20.98;9.05;;;;;;;1.13;100.00;100425.25;12196864;19;20014;-83
2023/01/26 02:27:59;;;;;;;22.73;10.10;;;;;;;1.12;100.00;100418.09;12199207;19;20445;-83
2023/01/26 02:32:01;;;;;;;24.15;9.05;;;;;;;1.08;100.00;100421.34;12199588;19;20007;-83
2023/01/26 02:36:03;;;;;;;20.10;9.25;;;;;;;1.04;100.00;100420.00;12196700;19;20010;-83
2023/01/26 02:40:39;;;;;;;19.70;8.85;;;;;;;1.05;100.00;100405.44;12175192;19;20030;-83
2023/01/26 02:44:42;;;;;;;24.88;9.55;;;;;;;1.02;100.00;100406.63;12192506;19;20083;-83
2023/01/26 02:53:05;;;;;;;22.92;8.55;;;;;;;0.93;100.00;100404.94;12171835;19;20528;-82
2023/01/26 02:57:07;;;;;;;23.15;9.05;;;;;;;0.86;100.00;100399.38;12188989;19;20014;-82
2023/01/26 03:01:08;;;;;;;22.20;9.80;;;;;;;0.87;100.00;100398.34;12174904;19;20046;-81
2023/01/26 03:05:20;;;;;;;21.00;8.68;;;;;;;0.87;100.00;100392.06;12201363;19;20006;-82
2023/01/26 03:09:22;;;;;;;22.87;9.13;;;;;;;0.87;100.00;100378.50;12198149;19;20011;-83
2023/01/26 03:13:23;;;;;;;21.17;8.57;;;;;;;0.89;100.00;100376.44;12178055;19;20007;-84
2023/01/26 03:17:25;;;;;;;23.00;8.85;;;;;;;0.86;100.00;100374.06;12188670;19;20575;-82
2023/01/26 03:30:09;;;;;;;20.67;7.88;;;;;;;1.11;100.00;100366.72;12194114;19;20071;-82
2023/01/26 03:34:11;;;;;;;18.42;7.90;;;;;;;1.20;100.00;100365.66;12174471;19;20003;-83
2023/01/26 03:38:13;;;;;;;20.33;7.63;;;;;;;1.24;100.00;100358.84;12194173;19;20006;-83
2023/01/26 03:59:43;;;;;;;20.10;8.10;;;;;;;1.07;100.00;100344.53;12199861;19;20075;-83
2023/01/26 04:12:44;;;;;;;21.83;8.68;;;;;;;1.03;100.00;100347.75;12207857;19;20006;-84
2023/01/26 04:25:34;;;;;;;24.45;9.35;;;;;;;0.93;100.00;100337.09;12184774;19;20568;-79
2023/01/26 04:29:36;;;;;;;27.75;8.82;;;;;;;0.82;100.00;100332.88;12204716;19;20017;-83
2023/01/26 04:33:37;;;;;;;27.17;9.65;;;;;;;0.72;100.00;100331.41;12211549;19;20349;-82
2023/01/26 04:37:40;;;;;;;24.38;8.70;;;;;;;0.66;100.00;100322.94;12201725;19;20057;-79
2023/01/26 04:41:42;;;;;;;13.13;5.80;;;;;;;0.61;100.00;100319.88;12264136;19;19994;-80
2023/01/26 04:45:58;;;;;;;20.67;8.07;;;;;;;0.54;100.00;100316.19;12226911;19;20003;-82
2023/01/26 04:50:01;;;;;;;16.10;6.55;;;;;;;0.48;100.00;100311.44;12192456;19;20003;-81
2023/01/26 04:54:03;;;;;;;21.60;7.78;;;;;;;0.47;100.00;100315.16;12207330;19;20020;-83
2023/01/26 04:58:07;;;;;;;18.35;7.10;;;;;;;0.47;100.00;100308.91;12186302;19;20389;-82
2023/01/26 05:02:09;;;;;;;19.33;7.25;;;;;;;0.43;100.00;100303.81;12202375;19;20035;-82
2023/01/26 05:06:11;;;;;;;19.23;6.95;;;;;;;0.41;100.00;100303.13;12204275;19;20017;-82
2023/01/26 05:10:14;;;;;;;21.20;8.02;;;;;;;0.42;100.00;100290.44;12178663;19;22075;-82
2023/01/26 05:14:28;;;;;;;19.60;7.30;;;;;;;0.33;100.00;100291.47;12206833;19;20010;-82
2023/01/26 05:18:42;;;;;;;21.10;7.70;;;;;;;0.39;100.00;100286.22;12204081;19;20010;-82
2023/01/26 05:22:58;;;;;;;20.95;7.95;;;;;;;0.39;100.00;100291.63;12183496;19;20035;-84
2023/01/26 05:27:20;;;;;;;18.13;7.93;;;;;;;0.38;100.00;100300.75;12203812;19;20006;-84
2023/01/26 05:31:32;;;;;;;22.88;8.98;;;;;;;0.34;100.00;100304.00;12178572;19;20349;-82
2023/01/26 05:35:33;;;;;;;23.33;8.88;;;;;;;0.38;100.00;100305.34;12203501;19;20081;-82
2023/01/26 05:39:37;;;;;;;20.02;8.45;;;;;;;0.44;100.00;100301.94;12203769;19;20018;-84
2023/01/26 05:43:40;;;;;;;22.83;8.52;;;;;;;0.39;100.00;100302.47;12179501;19;20006;-83
2023/01/26 05:47:57;;;;;;;24.02;9.10;;;;;;;0.37;100.00;100293.66;12198297;19;20007;-82
2023/01/26 05:51:59;;;;;;;20.87;8.77;;;;;;;0.44;100.00;100313.63;12202547;19;20010;-82
2023/01/26 05:56:02;;;;;;;;;;;;;;;0.47;100.00;100312.44;12202667;19;20408;-81
2023/01/26 06:00:07;;;;;;;20.92;7.60;;;;;;;0.51;100.00;100311.09;12198937;19;19913;-82
2023/01/26 06:04:20;;;;;;;17.48;6.93;;;;;;;0.44;100.00;100326.34;12176729;19;20029;-82
2023/01/26 06:08:26;;;;;;;17.95;7.80;;;;;;;0.52;100.00;100328.22;12201190;19;20127;-81
2023/01/26 06:12:53;;;;;;;17.60;7.57;;;;;;;0.49;100.00;100332.09;12201065;19;20005;-81
2023/01/26 06:17:15;;;;;;;18.27;7.25;;;;;;;0.48;100.00;100344.00;12178321;19;20010;-83
2023/01/26 06:21:17;;;;;;;19.27;7.88;;;;;;;0.51;100.00;100343.66;12199874;19;20010;-84
2023/01/26 06:25:19;;;;;;;23.88;8.07;;;;;;;0.51;100.00;100342.81;12170112;19;21404;-81
2023/01/26 06:29:21;;;;;;;13.27;5.47;;;;;;;0.54;100.00;100337.88;12169932;19;20077;-81
2023/01/26 06:33:23;;;;;;;19.23;7.32;;;;;;;0.56;100.00;100343.94;12200097;19;20025;-83
2023/01/26 06:37:25;;;;;;;16.90;7.13;;;;;;;0.57;100.00;100348.38;12186235;19;20028;-82
2023/01/26 06:41:27;;;;;;;15.68;6.88;;;;;;;0.47;100.00;100346.84;12206080;19;19998;-82
2023/01/26 06:45:29;;;;;;;20.42;8.23;;;;;;;0.48;100.00;100346.69;12219075;19;19999;-78
2023/01/26 06:49:31;;;;;;;18.50;6.95;;;;;;;0.51;100.00;100346.34;12232183;19;19999;-78
2023/01/26 06:53:41;;;;;;;17.55;7.20;;;;;;;0.47;100.00;100346.84;12244918;19;20611;-79
2023/01/26 06:58:03;;;;;;;19.52;7.47;;;;;;;0.51;100.00;100342.81;12197153;19;20006;-82
2023/01/26 07:02:29;;;;;;;20.60;7.88;;;;;;;0.52;100.00;100341.78;12204876;19;20010;-82
2023/01/26 07:06:30;;;;;;;17.60;7.53;;;;;;;0.58;100.00;100344.63;12209725;19;20353;-80
2023/01/26 07:10:32;;;;;;;17.80;7.05;;;;;;;0.53;100.00;100338.03;12185710;19;20026;-83
2023/01/26 07:14:34;;;;;;;19.83;7.95;;;;;;;0.48;100.00;100343.13;12206801;19;20017;-82
2023/01/26 07:18:36;;;;;;;16.25;7.60;;;;;;;0.47;100.00;100349.56;12208274;19;20536;-82
2023/01/26 07:22:38;;;;;;;19.30;7.72;;;;;;;0.43;100.00;100351.78;12183696;19;20003;-83
2023/01/26 07:26:39;;;;;;;17.55;8.10;;;;;;;0.38;100.00;100352.28;12199304;19;20007;-80
2023/01/26 07:30:41;;;;;;;20.50;7.57;;;;;;;0.42;100.00;100356.34;12204242;19;20005;-82
2023/01/26 07:34:43;;;;;;;18.23;7.82;;;;;;;0.48;100.00;100362.97;12178914;19;20025;-81
2023/01/26 07:38:45;;;;;;;16.52;7.40;;;;;;;0.47;100.00;100357.69;12196203;19;20010;-82
2023/01/26 07:42:47;;;;;;;19.27;8.05;;;;;;;0.48;100.00;100364.81;12198177;19;20011;-82
2023/01/26 07:46:54;;;;;;;17.48;7.55;;;;;;;0.50;100.00;100362.78;12206760;19;20002;-80
2023/01/26 07:51:01;;;;;;;18.63;7.32;;;;;;;0.56;100.00;100365.66;12217144;19;20011;-83
2023/01/26 07:55:03;;;;;;;17.55;7.68;;;;;;;0.61;100.00;100368.69;12190733;19;20071;-80
2023/01/26 07:59:05;;;;;;;17.08;7.25;;;;;;;0.65;100.00;100352.94;12215985;19;20007;-80
2023/01/26 08:03:07;;;;;;;18.50;6.88;;;;;;;0.60;100.00;100353.47;12212237;19;20114;-81
2023/01/26 08:07:08;;;;;;;18.27;8.05;;;;;;;0.58;100.00;100347.34;12185285;19;20028;-80
2023/01/26 08:11:11;;;;;;;20.23;7.67;;;;;;;0.62;100.00;100353.28;12207817;19;20361;-83
2023/01/26 08:15:13;;;;;;;20.35;7.30;;;;;;;0.59;100.00;100354.44;12206377;19;20035;-83
2023/01/26 08:19:15;;;;;;;17.30;6.93;;;;;;;0.71;100.00;100357.66;12186951;19;20074;-81
2023/01/26 08:23:16;;;;;;;12.63;4.43;;;;;;;0.84;100.00;100366.13;12209105;19;20046;-82
2023/01/26 08:27:18;;;;;;;14.98;7.05;;;;;;;0.79;100.00;100368.50;12213024;19;20066;-81
2023/01/26 08:31:20;;;;;;;16.02;7.30;;;;;;;0.80;100.00;100375.59;12193529;19;20011;-81
2023/01/26 08:35:22;;;;;;;14.90;7.20;;;;;;;0.80;100.00;100375.59;12206258;19;20021;-83
2023/01/26 08:39:24;;;;;;;16.35;7.53;;;;;;;0.81;100.00;100368.34;12181427;19;20031;-77
2023/01/26 08:43:26;;;;;;;13.98;6.53;;;;;;;0.87;100.00;100376.63;12166281;19;20043;-80
2023/01/26 08:47:27;;;;;;;18.00;6.40;;;;;;;1.04;100.00;100377.44;12190416;19;20010;-77
2023/01/26 08:51:29;;;;;;;15.32;7.10;;;;;;;1.09;100.00;100385.88;12204954;19;20276;-79
2023/01/26 08:55:32;;;;;;;14.45;6.35;;;;;;;1.06;100.00;100388.94;12178920;19;20003;-79
2023/01/26 08:59:34;;;;;;;19.75;7.72;;;;;;;0.93;100.00;100398.66;12197008;19;20039;-77
2023/01/26 09:03:36;;;;;;;15.27;6.40;;;;;;;0.88;100.00;100388.31;12211800;19;20010;-80
2023/01/26 09:07:39;;;;;;;;;;;;;;;0.78;100.00;100387.69;12182681;19;20025;-82
2023/01/26 09:11:40;;;;;;;16.98;6.93;;;;;;;0.77;100.00;100396.81;12203374;19;20387;-80
2023/01/26 09:15:42;;;;;;;16.52;7.38;;;;;;;0.76;100.00;100398.69;12201141;19;20015;-79
2023/01/26 09:19:44;;;;;;;18.58;7.50;;;;;;;0.80;100.00;100385.63;12178402;19;20006;-78
2023/01/26 09:23:45;;;;;;;15.23;7.57;;;;;;;0.80;100.00;100404.59;12212933;19;20028;-77
2023/01/26 09:27:48;;;;;;;15.75;7.43;;;;;;;0.78;100.00;100395.81;12244555;19;20025;-81
2023/01/26 09:31:49;;;;;;;15.65;7.45;;;;;;;0.79;100.00;100392.91;12211062;19;20070;-81
2023/01/26 09:35:52;;;;;;;16.42;8.07;;;;;;;0.80;100.00;100382.91;12219033;19;20007;-81
2023/01/26 09:39:54;;;;;;;19.55;8.32;;;;;;;0.83;100.00;100380.72;12205163;19;20006;-81
2023/01/26 09:44:17;;;;;;;12.25;6.50;;;;;;;0.77;100.00;100391.38;12180241;19;20006;-82
2023/01/26 09:48:49;;;;;;;12.73;5.88;;;;;;;0.76;100.00;100390.53;12207185;19;19999;-78
2023/01/26 09:53:05;;;;;;;13.93;6.45;;;;;;;0.68;100.00;100395.97;12181506;19;20010;-80
2023/01/26 09:57:47;;;;;;;13.38;6.15;;;;;;;0.75;100.00;100391.56;12199322;19;20007;-81
2023/01/26 10:02:00;;;;;;;14.68;5.22;;;;;;;0.81;100.00;100384.63;12180481;19;20011;-82
2023/01/26 10:06:14;;;;;;;12.23;6.22;;;;;;;0.79;100.00;100392.91;12202107;19;20038;-77
2023/01/26 10:10:45;;;;;;;11.32;5.32;;;;;;;0.77;100.00;100389.53;12201293;19;20011;-77
2023/01/26 10:14:57;;;;;;;12.70;6.07;;;;;;;0.82;100.00;100386.31;12198384;19;20402;-82
2023/01/26 10:19:10;;;;;;;12.38;5.93;;;;;;;0.91;100.00;100382.56;12204322;19;20006;-81
2023/01/26 10:23:15;;;;;;;;;;;;;;;0.96;100.00;100384.75;12181232;19;20007;-82
2023/01/26 10:27:17;;;;;;;14.75;5.90;;;;;;;0.95;100.00;100378.47;12208629;19;19983;-81
2023/01/26 10:31:37;;;;;;;10.25;5.18;;;;;;;0.97;100.00;100384.56;12188611;19;20018;-82
2023/01/26 10:35:41;;;;;;;13.15;5.38;;;;;;;0.96;100.00;100382.88;12250223;19;20002;-79
2023/01/26 10:40:01;;;;;;;12.37;5.53;;;;;;;0.84;100.00;100381.56;12248577;19;20032;-80
2023/01/26 10:44:19;;;;;;;17.52;6.65;;;;;;;0.66;100.00;100371.75;12176966;19;20027;-80
2023/01/26 10:48:24;;;;;;;15.25;5.75;;;;;;;0.76;100.00;100373.44;12203418;19;20367;-82
2023/01/26 10:52:25;;;;;;;17.88;8.15;;;;;;;0.86;100.00;100363.22;12179584;19;20018;-79
2023/01/26 10:56:27;;;;;;;23.83;10.50;;;;;;;0.97;100.00;100371.00;12203203;19;20026;-81
2023/01/26 11:00:32;;;;;;;14.57;6.78;;;;;;;1.12;100.00;100358.38;12198575;19;20074;-80
2023/01/26 11:04:34;;;;;;;13.27;7.25;;;;;;;1.17;100.00;100351.59;12179147;19;20697;-82
2023/01/26 11:08:38;;;;;;;13.18;5.53;;;;;;;1.24;100.00;100350.72;12201017;19;20003;-81
2023/01/26 11:12:39;;;;;;;28.08;11.93;;;;;;;1.31;100.00;100350.88;12202235;19;20472;-80
2023/01/26 11:16:51;;;;;;;14.70;6.60;;;;;;;1.33;100.00;100344.22;12181993;19;20006;-81
2023/01/26 11:21:02;;;;;;;15.03;6.27;;;;;;;1.28;100.00;100346.66;12220660;19;20011;-80
2023/01/26 11:25:04;;;;;;;61.63;23.33;;;;;;;1.26;100.00;100347.84;12225120;19;20018;-79
2023/01/26 11:29:29;;;;;;;14.97;8.53;;;;;;;1.22;100.00;100336.50;12227802;19;20040;-80
2023/01/26 11:33:52;;;;;;;11.32;6.03;;;;;;;1.25;100.00;100333.44;12227093;19;20394;-82
2023/01/26 11:38:25;;;;;;;7.27;3.83;;;;;;;1.29;100.00;100329.31;12206313;19;20007;-83
2023/01/26 11:42:45;;;;;;;9.85;4.20;;;;;;;1.30;99.57;100324.72;12227842;19;20007;-80
2023/01/26 11:46:52;;;;;;;11.30;6.13;;;;;;;1.23;97.14;100324.59;12205886;19;20010;-81
2023/01/26 11:51:17;;;;;;;13.32;6.15;;;;;;;1.27;97.11;100322.38;12230812;19;20018;-82
2023/01/26 11:55:37;;;;;;;8.27;4.50;;;;;;;1.41;98.45;100312.63;12206402;19;20059;-81
2023/01/26 11:59:50;;;;;;;14.52;6.20;;;;;;;1.55;97.89;100309.16;12225620;19;20003;-81
2023/01/26 12:03:52;;;;;;;10.50;4.47;;;;;;;1.61;96.72;100311.16;12229003;19;20476;-79
2023/01/26 12:08:22;;;;;;;11.00;5.40;;;;;;;1.63;96.21;100305.53;12217177;19;20003;-80
2023/01/26 12:12:41;;;;;;;12.10;5.85;;;;;;;1.36;95.76;100302.28;12271265;19;19998;-82
2023/01/26 12:17:12;;;;;;;12.23;5.28;;;;;;;1.25;96.27;100297.25;12237368;19;20073;-81
2023/01/26 12:21:19;;;;;;;10.52;4.82;;;;;;;1.31;96.33;100286.56;12237412;19;20007;-82
2023/01/26 12:25:30;;;;;;;10.20;5.23;;;;;;;1.27;94.57;100284.34;12207608;19;20023;-80
2023/01/26 12:29:50;;;;;;;8.23;4.60;;;;;;;1.09;92.41;100280.03;12227121;19;20038;-80
2023/01/26 12:33:54;;;;;;;10.43;4.75;;;;;;;1.07;93.51;100270.38;12223281;19;20091;-81
2023/01/26 12:38:28;;;;;;;14.18;5.35;;;;;;;1.14;94.12;100268.66;12196069;19;20010;-81
2023/01/26 12:43:13;;;;;;;11.32;5.63;;;;;;;1.22;93.69;100257.75;12219468;19;20353;-81
2023/01/26 12:47:38;;;;;;;11.23;5.57;;;;;;;1.20;93.25;100253.53;12195234;19;20075;-81
2023/01/26 12:51:46;;;;;;;11.45;5.93;;;;;;;1.24;93.81;100252.97;12222338;19;20013;-80
2023/01/26 12:55:55;;;;;;;31.40;13.57;;;;;;;1.21;93.39;100242.47;12196182;19;20071;-81
2023/01/26 13:00:16;;;;;;;14.75;7.88;;;;;;;1.16;93.33;100244.91;12212312;19;20033;-83
2023/01/26 13:04:18;;;;;;;13.88;7.10;;;;;;;1.17;94.22;100243.88;12192113;19;20010;-83
2023/01/26 13:08:29;;;;;;;11.55;5.85;;;;;;;1.14;94.23;100252.38;12209364;19;20457;-82
2023/01/26 13:12:54;;;;;;;11.73;6.38;;;;;;;1.04;94.34;100252.59;12208761;19;20006;-84
2023/01/26 13:16:56;;;;;;;13.05;6.10;;;;;;;1.02;94.67;100242.94;12188229;19;20091;-83
2023/01/26 13:20:58;;;;;;;14.60;7.30;;;;;;;0.89;94.26;100249.78;12210376;19;20030;-82
2023/01/26 13:25:12;;;;;;;17.25;8.15;;;;;;;0.82;94.65;100248.78;12211241;19;20006;-82
2023/01/26 13:29:32;;;;;;;17.27;8.30;;;;;;;0.83;94.96;100246.91;12185480;19;20484;-82
2023/01/26 13:33:34;;;;;;;13.15;6.88;;;;;;;0.84;95.00;100252.16;12209783;19;20043;-82
2023/01/26 13:37:52;;;;;;;13.82;7.45;;;;;;;0.80;94.79;100245.38;12188831;19;20374;-82
2023/01/26 13:41:54;;;;;;;12.63;6.45;;;;;;;0.81;93.25;100254.41;12206389;19;20125;-82
2023/01/26 13:46:09;;;;;;;13.65;7.40;;;;;;;0.86;92.35;100254.69;12203654;19;20035;-82
2023/01/26 13:50:32;;;;;;;11.70;6.57;;;;;;;0.87;90.15;100257.25;12183679;19;20062;-82
2023/01/26 13:54:40;;;;;;;12.82;6.20;;;;;;;1.03;89.93;100253.59;12205914;19;20353;-82
2023/01/26 13:58:42;;;;;;;13.65;7.03;;;;;;;1.11;88.17;100255.44;12186027;19;20046;-82
2023/01/26 14:02:48;;;;;;;13.48;5.95;;;;;;;1.27;88.78;100244.47;12210775;19;20064;-82
2023/01/26 14:07:01;;;;;;;15.60;6.20;;;;;;;1.25;87.77;100251.97;12212889;19;20098;-81
2023/01/26 14:11:13;;;;;;;13.00;5.72;;;;;;;1.21;87.45;100261.47;12218880;19;20497;-82
2023/01/26 14:15:22;;;;;;;12.93;6.20;;;;;;;1.13;87.24;100267.81;12267071;19;20030;-80
2023/01/26 14:19:25;;;;;;;14.80;6.70;;;;;;;1.16;88.61;100263.03;12194106;19;20361;-81
2023/01/26 14:23:28;;;;;;;;;;;;;;;1.13;88.37;100261.53;12212454;19;20003;-82
2023/01/26 14:27:34;;;;;;;;;;;;;;;1.09;89.52;100266.47;12213226;19;20271;-83
2023/01/26 14:31:35;;;;;;;13.75;6.00;;;;;;;1.20;89.91;100267.94;12188869;19;19941;-82
2023/01/26 14:35:37;;;;;;;14.98;6.10;;;;;;;1.20;90.04;100273.38;12211177;19;20006;-82
2023/01/26 14:39:41;;;;;;;15.23;7.20;;;;;;;1.26;90.44;100271.81;12211196;19;20011;-82
2023/01/26 14:43:43;;;;;;;15.65;6.93;;;;;;;1.30;89.92;100275.84;12189164;19;20069;-81
2023/01/26 14:47:45;;;;;;;11.25;5.75;;;;;;;1.18;89.61;100280.84;12203070;19;20017;-83
2023/01/26 14:51:57;;;;;;;14.02;6.00;;;;;;;1.17;90.22;100281.88;12210261;19;20011;-82
2023/01/26 14:55:58;;;;;;;12.73;5.60;;;;;;;1.14;90.74;100282.22;12181574;19;20010;-81
2023/01/26 15:00:01;;;;;;;15.88;5.45;;;;;;;1.14;91.29;100287.66;12204149;19;20385;-81
2023/01/26 15:04:25;;;;;;;11.60;5.40;;;;;;;0.88;89.45;100294.19;12203105;19;20011;-81
2023/01/26 15:08:26;;;;;;;12.85;6.10;;;;;;;0.78;90.42;100296.28;12185910;19;20015;-81
2023/01/26 15:12:32;;;;;;;11.45;5.28;;;;;;;0.79;91.36;100289.81;12206075;19;20662;-82
2023/01/26 15:16:50;;;;;;;13.82;6.32;;;;;;;0.72;90.56;100290.72;12183603;19;20011;-81
2023/01/26 15:21:11;;;;;;;11.68;5.93;;;;;;;0.84;92.88;100298.28;12203905;19;20007;-83
2023/01/26 15:25:22;;;;;;;12.32;5.28;;;;;;;1.06;91.75;100293.13;12162426;19;20367;-83
2023/01/26 15:29:27;;;;;;;13.48;5.47;;;;;;;0.99;91.08;100284.84;12198919;19;20011;-82
2023/01/26 15:33:38;;;;;;;14.07;5.18;;;;;;;0.85;91.34;100285.56;12203101;19;19999;-82
2023/01/26 15:37:39;;;;;;;14.93;6.07;;;;;;;0.87;91.95;100291.69;12176721;19;20006;-83
2023/01/26 15:41:43;;;;;;;15.43;5.68;;;;;;;0.89;92.29;100289.63;12201865;19;20022;-82
2023/01/26 15:45:51;;;;;;;12.98;5.95;;;;;;;0.93;92.29;100284.72;12196857;19;20492;-82
2023/01/26 15:49:53;;;;;;;14.60;5.80;;;;;;;0.92;92.13;100286.56;12176902;19;20010;-82
2023/01/26 15:53:55;;;;;;;16.67;6.30;;;;;;;0.89;91.87;100282.34;12199006;19;20006;-82
2023/01/26 15:57:57;;;;;;;13.40;5.30;;;;;;;0.90;92.67;100283.19;12201104;19;20062;-82
2023/01/26 16:01:58;;;;;;;13.85;5.68;;;;;;;0.95;92.79;100275.34;12177347;19;20468;-82
2023/01/26 16:06:00;;;;;;;12.68;6.15;;;;;;;0.93;92.76;100280.13;12204597;19;20006;-82
2023/01/26 16:10:02;;;;;;;17.30;6.47;;;;;;;0.88;93.04;100268.94;12216062;19;20032;-82
2023/01/26 16:14:04;;;;;;;15.60;6.63;;;;;;;0.90;92.90;100273.16;12190559;19;20050;-83
2023/01/26 16:18:06;;;;;;;14.98;6.15;;;;;;;0.93;93.23;100265.72;12213459;19;20030;-81
2023/01/26 16:22:09;;;;;;;14.20;6.75;;;;;;;0.96;93.65;100265.34;12207829;19;20010;-82
2023/01/26 16:26:13;;;;;;;12.55;5.05;;;;;;;1.00;93.98;100272.97;12209257;19;20007;-82
2023/01/26 16:30:16;;;;;;;12.45;6.28;;;;;;;1.02;93.51;100270.09;12211450;19;20530;-82
2023/01/26 16:34:18;;;;;;;13.57;6.13;;;;;;;1.03;93.43;100266.34;12191398;19;20006;-82
2023/01/26 16:38:19;;;;;;;14.52;6.65;;;;;;;1.06;93.52;100272.25;12210203;19;20006;-82
2023/01/26 16:42:21;;;;;;;12.07;6.47;;;;;;;1.12;93.71;100270.69;12210873;19;20469;-82
2023/01/26 16:46:24;;;;;;;13.80;6.10;;;;;;;1.15;93.25;100270.34;12184758;19;20015;-82
2023/01/26 16:50:25;;;;;;;15.00;5.88;;;;;;;1.14;93.46;100274.94;12205381;19;20031;-83
2023/01/26 16:54:27;;;;;;;15.73;5.97;;;;;;;1.14;93.55;100279.50;12209505;19;20031;-82
2023/01/26 16:58:31;;;;;;;13.18;5.80;;;;;;;1.24;94.61;100282.00;12188482;19;20416;-82
2023/01/26 17:02:35;;;;;;;13.18;5.20;;;;;;;1.28;94.37;100270.63;12214544;19;20040;-82
2023/01/26 17:06:36;;;;;;;19.33;8.02;;;;;;;1.30;94.47;100267.72;12214895;19;20003;-83
2023/01/26 17:10:38;;;;;;;18.92;9.10;;;;;;;1.30;94.48;100268.56;12195368;19;20006;-81
2023/01/26 17:14:59;;;;;;;16.35;7.53;;;;;;;1.25;94.30;100270.09;12210628;19;20031;-81
2023/01/26 17:19:01;;;;;;;20.50;7.55;;;;;;;1.24;94.83;100280.13;12212071;19;20011;-83
2023/01/26 17:23:03;;;;;;;19.27;8.18;;;;;;;1.12;94.87;100276.97;12190062;19;20080;-81
2023/01/26 17:27:05;;;;;;;17.05;7.10;;;;;;;0.96;95.82;100279.78;12207825;19;20007;-82
2023/01/26 17:31:09;;;;;;;22.50;10.40;;;;;;;0.84;96.20;100279.31;12214374;19;20006;-82
2023/01/26 17:35:11;;;;;;;20.27;8.57;;;;;;;0.79;97.49;100278.97;12191683;19;20086;-82
2023/01/26 17:39:13;;;;;;;21.98;8.65;;;;;;;0.82;97.56;100281.34;12213647;19;20374;-81
2023/01/26 17:43:16;;;;;;;19.60;7.78;;;;;;;0.85;98.58;100280.97;12193260;19;20078;-81
2023/01/26 17:47:19;;;;;;;20.23;8.25;;;;;;;0.97;98.78;100286.88;12216290;19;20010;-81
2023/01/26 17:51:22;;;;;;;23.90;8.18;;;;;;;0.99;99.31;100292.13;12267503;19;20003;-80
2023/01/26 17:55:23;;;;;;;19.52;7.88;;;;;;;1.03;100.00;100298.91;12238812;19;20703;-82
2023/01/26 17:59:25;;;;;;;21.08;7.97;;;;;;;1.07;100.00;100300.22;12226114;19;20018;-82
2023/01/26 18:03:27;;;;;;;21.75;8.75;;;;;;;1.09;100.00;100296.31;12217927;19;20035;-82
2023/01/26 18:07:28;;;;;;;26.97;9.10;;;;;;;1.04;100.00;100298.75;12186799;19;20007;-82
2023/01/26 18:11:30;;;;;;;21.52;9.18;;;;;;;1.04;100.00;100295.16;12222031;19;19999;-82
2023/01/26 18:15:35;;;;;;;23.73;8.65;;;;;;;1.07;100.00;100305.66;12221535;19;20026;-82
2023/01/26 18:19:36;;;;;;;24.05;9.52;;;;;;;1.04;100.00;100292.44;12185975;19;20002;-82
2023/01/26 18:23:38;;;;;;;25.20;9.27;;;;;;;0.99;100.00;100292.13;12207225;19;20002;-83
2023/01/26 18:27:41;;;;;;;23.33;8.83;;;;;;;0.90;100.00;100294.88;12205038;19;20079;-82
2023/01/26 18:31:42;;;;;;;25.08;9.68;;;;;;;0.86;100.00;100290.84;12187437;19;20262;-82
2023/01/26 18:35:44;;;;;;;20.65;9.25;;;;;;;0.85;100.00;100297.25;12211304;19;20002;-82
2023/01/26 18:39:46;;;;;;;21.58;8.45;;;;;;;0.87;100.00;100294.38;12207656;19;20559;-82
2023/01/26 18:43:52;;;;;;;17.10;7.43;;;;;;;0.93;100.00;100293.69;12189422;19;20006;-82
2023/01/26 18:47:53;;;;;;;21.85;8.93;;;;;;;0.95;100.00;100301.63;12208284;19;20010;-82
2023/01/26 18:51:55;;;;;;;20.58;8.90;;;;;;;0.96;100.00;100295.22;12212917;19;20002;-82
2023/01/26 18:56:09;;;;;;;26.63;10.55;;;;;;;0.95;100.00;100298.91;12207123;19;20002;-81
2023/01/26 19:00:12;;;;;;;25.90;9.65;;;;;;;0.96;100.00;100287.06;12267986;19;20007;-81
2023/01/26 19:04:14;;;;;;;24.85;9.57;;;;;;;0.90;100.00;100284.03;12203205;19;20014;-79
2023/01/26 19:08:21;;;;;;;26.98;10.63;;;;;;;0.94;100.00;100289.09;12196629;19;20010;-81
2023/01/26 19:12:23;;;;;;;26.23;10.35;;;;;;;0.96;100.00;100284.34;12206295;19;20552;-81
2023/01/26 19:16:25;;;;;;;25.90;9.45;;;;;;;0.95;100.00;100296.22;12187695;19;20018;-84
2023/01/26 19:20:27;;;;;;;24.00;10.15;;;;;;;0.94;100.00;100294.53;12206829;19;20043;-81
2023/01/26 19:24:29;;;;;;;25.83;7.63;;;;;;;0.90;100.00;100294.03;12204971;19;20010;-80
2023/01/26 19:28:30;;;;;;;30.98;10.85;;;;;;;0.91;100.00;100291.13;12187422;19;20075;-80
2023/01/26 19:32:32;;;;;;;32.33;11.00;;;;;;;0.91;100.00;100296.56;12203658;19;20010;-81
2023/01/26 19:36:35;;;;;;;33.47;11.88;;;;;;;0.82;100.00;100291.34;12199774;19;20003;-81